createdAt,value
2018-05-01T00:01:11.966Z,15.16
2018-05-01T00:03:45.831Z,15.18
2018-05-01T00:06:21.329Z,15.23
2018-05-01T00:08:54.519Z,15.24
2018-05-01T00:11:27.551Z,15.25
2018-05-01T00:14:00.724Z,15.26
2018-05-01T00:16:33.891Z,15.29
2018-05-01T00:19:07.786Z,15.29
2018-05-01T00:21:41.259Z,15.24
2018-05-01T00:24:14.235Z,15.18
2018-05-01T00:26:47.598Z,15.06
2018-05-01T00:29:21.921Z,14.84
2018-05-01T00:31:55.066Z,14.72
2018-05-01T00:34:28.250Z,14.67
2018-05-01T00:37:01.587Z,14.59
2018-05-01T00:39:36.261Z,14.53
2018-05-01T00:42:11.354Z,14.49
2018-05-01T00:44:44.770Z,14.43
2018-05-01T00:47:18.540Z,14.42
2018-05-01T00:49:51.582Z,14.31
2018-05-01T00:52:33.364Z,14.29
2018-05-01T00:55:06.652Z,14.22
2018-05-01T00:57:39.657Z,14.23
2018-05-01T01:00:12.800Z,14.18
2018-05-01T01:02:46.131Z,14.03
2018-05-01T01:05:19.231Z,14.01
2018-05-01T01:07:52.376Z,13.89
2018-05-01T01:10:26.612Z,13.83
2018-05-01T01:13:00.115Z,13.72
2018-05-01T01:15:34.378Z,13.67
2018-05-01T01:18:09.467Z,13.56
2018-05-01T01:20:45.956Z,13.54
2018-05-01T01:23:19.015Z,13.62
2018-05-01T01:25:52.106Z,13.68
2018-05-01T01:28:25.766Z,13.74
2018-05-01T01:30:59.751Z,13.84
2018-05-01T01:33:33.194Z,13.92
2018-05-01T01:36:04.895Z,13.99
2018-05-01T01:38:37.060Z,14.02
2018-05-01T01:41:08.928Z,14.00
2018-05-01T01:43:40.619Z,13.95
2018-05-01T01:46:14.300Z,13.86
2018-05-01T01:48:47.974Z,13.80
2018-05-01T01:51:19.895Z,13.77
2018-05-01T01:53:51.805Z,13.67
2018-05-01T01:56:23.474Z,13.58
2018-05-01T01:58:55.502Z,13.51
2018-05-01T02:01:27.118Z,13.47
2018-05-01T02:03:59.239Z,13.40
2018-05-01T02:06:31.151Z,13.31
2018-05-01T02:09:03.497Z,13.23
2018-05-01T02:11:35.159Z,13.19
2018-05-01T02:14:06.779Z,13.23
2018-05-01T02:16:38.453Z,13.20
2018-05-01T02:19:10.119Z,13.12
2018-05-01T02:21:41.778Z,13.11
2018-05-01T02:24:13.724Z,13.12
2018-05-01T02:26:46.410Z,13.10
2018-05-01T02:29:19.098Z,13.10
2018-05-01T02:31:51.565Z,13.14
2018-05-01T02:34:24.924Z,13.22
2018-05-01T02:36:59.364Z,13.32
2018-05-01T02:39:35.360Z,13.42
2018-05-01T02:42:08.644Z,13.46
2018-05-01T02:44:42.247Z,13.36
2018-05-01T02:47:15.197Z,13.38
2018-05-01T02:49:47.981Z,13.35
2018-05-01T02:52:20.567Z,13.36
2018-05-01T02:54:53.149Z,13.36
2018-05-01T02:57:28.744Z,13.44
2018-05-01T03:00:01.032Z,13.50
2018-05-01T03:02:33.048Z,13.55
2018-05-01T03:05:05.165Z,13.57
2018-05-01T03:07:37.949Z,13.61
2018-05-01T03:10:10.339Z,13.72
2018-05-01T03:12:44.231Z,13.73
2018-05-01T03:15:16.036Z,13.74
2018-05-01T03:17:48.015Z,13.80
2018-05-01T03:20:21.383Z,13.71
2018-05-01T03:22:53.630Z,13.78
2018-05-01T03:25:28.118Z,13.72
2018-05-01T03:28:02.195Z,13.80
2018-05-01T03:30:34.836Z,13.79
2018-05-01T03:33:08.143Z,13.77
2018-05-01T03:35:45.169Z,13.79
2018-05-01T03:38:18.153Z,13.84
2018-05-01T03:40:54.061Z,13.83
2018-05-01T03:43:27.999Z,13.77
2018-05-01T03:46:02.137Z,13.71
2018-05-01T03:48:36.994Z,13.71
2018-05-01T03:51:10.698Z,13.71
2018-05-01T03:53:46.923Z,13.67
2018-05-01T03:56:19.090Z,13.75
2018-05-01T03:58:51.388Z,13.75
2018-05-01T04:01:27.516Z,13.71
2018-05-01T04:04:00.700Z,13.82
2018-05-01T04:06:34.911Z,13.81
2018-05-01T04:09:08.926Z,13.76
2018-05-01T04:11:41.500Z,13.79
2018-05-01T04:14:14.512Z,13.77
2018-05-01T04:16:50.262Z,13.79
2018-05-01T04:19:22.806Z,13.80
2018-05-01T04:21:56.673Z,13.76
2018-05-01T04:24:31.980Z,13.85
2018-05-01T04:27:04.660Z,13.80
2018-05-01T04:29:39.104Z,13.87
2018-05-01T04:32:12.606Z,13.84
2018-05-01T04:34:46.406Z,13.91
2018-05-01T04:37:20.961Z,13.78
2018-05-01T04:39:54.229Z,13.78
2018-05-01T04:42:27.381Z,13.74
2018-05-01T04:45:02.103Z,13.68
2018-05-01T04:47:33.783Z,13.80
2018-05-01T04:50:07.289Z,13.87
2018-05-01T04:52:41.125Z,13.86
2018-05-01T04:55:14.709Z,13.82
2018-05-01T04:57:48.359Z,13.88
2018-05-01T05:00:23.072Z,13.97
2018-05-01T05:02:55.049Z,13.92
2018-05-01T05:05:26.818Z,14.01
2018-05-01T05:07:58.862Z,14.03
2018-05-01T05:10:30.718Z,14.11
2018-05-01T05:13:02.511Z,14.03
2018-05-01T05:15:38.385Z,13.95
2018-05-01T05:18:10.613Z,13.97
2018-05-01T05:20:42.448Z,14.10
2018-05-01T05:23:14.352Z,14.14
2018-05-01T05:25:46.680Z,14.18
2018-05-01T05:28:18.434Z,14.16
2018-05-01T05:30:50.188Z,14.12
2018-05-01T05:33:21.961Z,14.10
2018-05-01T05:35:53.908Z,14.14
2018-05-01T05:38:26.741Z,14.08
2018-05-01T05:40:58.663Z,14.05
2018-05-01T05:43:30.591Z,14.05
2018-05-01T05:46:02.706Z,14.12
2018-05-01T05:48:34.401Z,14.12
2018-05-01T05:51:06.241Z,14.21
2018-05-01T05:53:38.510Z,14.37
2018-05-01T05:56:10.550Z,14.52
2018-05-01T05:58:42.253Z,14.63
2018-05-01T06:01:15.323Z,14.84
2018-05-01T06:03:48.712Z,14.56
2018-05-01T06:06:20.601Z,14.41
2018-05-01T06:08:52.479Z,14.47
2018-05-01T06:11:24.266Z,14.59
2018-05-01T06:13:56.072Z,14.77
2018-05-01T06:16:27.948Z,14.90
2018-05-01T06:18:59.969Z,14.81
2018-05-01T06:21:32.177Z,14.77
2018-05-01T06:24:13.828Z,14.68
2018-05-01T06:26:55.938Z,14.89
2018-05-01T06:29:32.620Z,15.29
2018-05-01T06:32:06.757Z,15.39
2018-05-01T06:34:38.635Z,15.04
2018-05-01T06:37:11.910Z,14.88
2018-05-01T06:39:45.068Z,14.87
2018-05-01T06:42:17.090Z,14.88
2018-05-01T06:44:49.261Z,14.50
2018-05-01T06:47:21.079Z,14.75
2018-05-01T06:49:52.925Z,14.44
2018-05-01T06:52:27.113Z,14.67
2018-05-01T06:54:59.574Z,14.89
2018-05-01T06:57:31.798Z,15.38
2018-05-01T07:00:03.494Z,15.57
2018-05-01T07:02:38.761Z,15.66
2018-05-01T07:05:10.740Z,15.54
2018-05-01T07:07:42.431Z,15.73
2018-05-01T07:10:21.643Z,15.12
2018-05-01T07:13:04.071Z,15.06
2018-05-01T07:15:41.503Z,15.13
2018-05-01T07:18:13.336Z,15.24
2018-05-01T07:20:45.303Z,15.36
2018-05-01T07:23:17.542Z,14.99
2018-05-01T07:25:49.596Z,15.67
2018-05-01T07:28:21.953Z,15.90
2018-05-01T07:30:54.181Z,16.14
2018-05-01T07:33:26.040Z,16.21
2018-05-01T07:35:57.939Z,16.39
2018-05-01T07:38:31.957Z,16.71
2018-05-01T07:41:03.830Z,16.52
2018-05-01T07:43:36.236Z,16.07
2018-05-01T07:46:08.290Z,17.01
2018-05-01T07:48:41.941Z,17.07
2018-05-01T07:51:15.048Z,16.98
2018-05-01T07:53:48.843Z,16.38
2018-05-01T07:56:22.004Z,16.38
2018-05-01T08:01:34.396Z,16.32
2018-05-01T08:04:08.375Z,16.53
2018-05-01T08:06:40.226Z,16.24
2018-05-01T08:09:12.942Z,16.25
2018-05-01T08:11:46.428Z,16.61
2018-05-01T08:14:19.479Z,16.94
2018-05-01T08:16:51.268Z,16.88
2018-05-01T08:19:30.141Z,17.11
2018-05-01T08:22:03.339Z,16.90
2018-05-01T08:24:39.756Z,16.45
2018-05-01T08:27:18.788Z,16.49
2018-05-01T08:29:59.772Z,16.01
2018-05-01T08:35:26.450Z,16.27
2018-05-01T08:38:04.082Z,15.77
2018-05-01T08:40:42.961Z,16.15
2018-05-01T08:43:24.123Z,16.26
2018-05-01T08:48:44.284Z,15.48
2018-05-01T08:51:22.976Z,15.45
2018-05-01T08:53:56.127Z,15.24
2018-05-01T08:56:31.082Z,15.33
2018-05-01T09:01:48.248Z,15.22
2018-05-01T09:04:21.037Z,15.01
2018-05-01T09:07:01.010Z,15.16
2018-05-01T09:10:05.946Z,15.20
2018-05-01T09:12:37.737Z,14.85
2018-05-01T09:15:09.733Z,14.98
2018-05-01T09:17:41.674Z,15.20
2018-05-01T09:20:13.622Z,15.09
2018-05-01T09:22:45.817Z,14.55
2018-05-01T09:25:17.757Z,14.90
2018-05-01T09:27:49.699Z,14.94
2018-05-01T09:30:21.530Z,15.27
2018-05-01T09:32:53.702Z,15.25
2018-05-01T09:35:25.895Z,15.03
2018-05-01T09:37:57.647Z,15.29
2018-05-01T09:40:29.789Z,15.22
2018-05-01T09:43:01.623Z,15.25
2018-05-01T09:45:33.439Z,15.52
2018-05-01T09:48:05.484Z,15.44
2018-05-01T09:50:37.264Z,15.54
2018-05-01T09:53:10.698Z,15.76
2018-05-01T09:55:43.891Z,16.51
2018-05-01T09:58:17.139Z,16.80
2018-05-01T10:00:53.115Z,16.75
2018-05-01T10:03:26.569Z,16.70
2018-05-01T10:05:59.770Z,16.52
2018-05-01T10:11:07.245Z,16.95
2018-05-01T10:13:41.643Z,16.46
2018-05-01T10:16:15.114Z,16.40
2018-05-01T10:18:48.929Z,16.78
2018-05-01T10:21:24.388Z,16.76
2018-05-01T10:23:57.848Z,16.82
2018-05-01T10:26:31.245Z,16.91
2018-05-01T10:29:04.445Z,16.69
2018-05-01T10:31:38.083Z,16.67
2018-05-01T10:34:11.439Z,16.32
2018-05-01T10:36:44.928Z,16.23
2018-05-01T10:39:18.566Z,16.41
2018-05-01T10:41:52.186Z,16.63
2018-05-01T10:44:25.308Z,16.63
2018-05-01T10:46:59.004Z,16.78
2018-05-01T10:49:32.564Z,16.70
2018-05-01T10:52:07.730Z,16.61
2018-05-01T10:54:41.075Z,16.56
2018-05-01T10:57:17.371Z,16.89
2018-05-01T10:59:50.470Z,16.71
2018-05-01T11:02:23.999Z,16.89
2018-05-01T11:04:57.726Z,17.23
2018-05-01T11:07:30.918Z,17.41
2018-05-01T11:10:04.110Z,16.79
2018-05-01T11:12:37.382Z,17.47
2018-05-01T11:15:12.117Z,17.23
2018-05-01T11:17:45.259Z,16.89
2018-05-01T11:20:19.951Z,16.82
2018-05-01T11:22:53.155Z,17.04
2018-05-01T11:25:26.740Z,16.91
2018-05-01T11:30:26.291Z,17.14
2018-05-01T11:33:00.134Z,17.19
2018-05-01T11:35:33.757Z,16.89
2018-05-01T11:38:10.933Z,17.16
2018-05-01T11:40:44.428Z,17.18
2018-05-01T11:43:18.889Z,16.89
2018-05-01T11:45:57.193Z,17.28
2018-05-01T11:48:30.730Z,17.38
2018-05-01T11:51:04.210Z,17.36
2018-05-01T11:53:37.779Z,17.28
2018-05-01T11:56:11.132Z,17.71
2018-05-01T11:58:44.745Z,17.05
2018-05-01T12:01:19.022Z,17.00
2018-05-01T12:03:54.709Z,17.22
2018-05-01T12:06:28.586Z,17.05
2018-05-01T12:09:02.348Z,17.07
2018-05-01T12:11:35.535Z,16.98
2018-05-01T12:14:09.049Z,16.99
2018-05-01T12:16:42.503Z,16.81
2018-05-01T12:19:19.915Z,16.31
2018-05-01T12:21:53.239Z,16.20
2018-05-01T12:24:27.618Z,16.24
2018-05-01T12:27:01.029Z,16.22
2018-05-01T12:29:34.448Z,16.75
2018-05-01T12:32:07.995Z,17.06
2018-05-01T12:34:41.457Z,16.55
2018-05-01T12:37:19.344Z,16.61
2018-05-01T12:39:53.110Z,16.65
2018-05-01T12:42:28.887Z,16.77
2018-05-01T12:45:03.303Z,16.93
2018-05-01T12:47:43.542Z,16.95
2018-05-01T12:50:17.224Z,16.76
2018-05-01T12:52:51.408Z,16.67
2018-05-01T12:55:26.105Z,16.69
2018-05-01T12:57:59.423Z,16.76
2018-05-01T13:00:49.431Z,16.90
2018-05-01T13:03:24.962Z,16.87
2018-05-01T13:05:58.614Z,16.70
2018-05-01T13:08:32.932Z,16.77
2018-05-01T13:11:06.312Z,16.85
2018-05-01T13:13:39.530Z,16.92
2018-05-01T13:16:13.092Z,17.00
2018-05-01T13:18:46.920Z,16.94
2018-05-01T13:21:22.881Z,16.86
2018-05-01T13:24:03.165Z,16.95
2018-05-01T13:26:36.792Z,16.89
2018-05-01T13:29:10.054Z,17.14
2018-05-01T13:31:43.305Z,16.96
2018-05-01T13:34:19.828Z,16.81
2018-05-01T13:36:56.374Z,17.10
2018-05-01T13:39:31.155Z,17.06
2018-05-01T13:42:05.710Z,16.92
2018-05-01T13:44:40.365Z,16.82
2018-05-01T13:47:14.207Z,16.64
2018-05-01T13:49:48.581Z,16.85
2018-05-01T13:52:22.196Z,16.89
2018-05-01T13:54:55.779Z,17.07
2018-05-01T13:57:33.642Z,16.91
2018-05-01T14:00:07.678Z,16.83
2018-05-01T14:02:40.976Z,16.92
2018-05-01T14:05:14.209Z,16.60
2018-05-01T14:07:49.358Z,17.01
2018-05-01T14:10:23.334Z,16.93
2018-05-01T14:12:56.886Z,17.00
2018-05-01T14:15:30.880Z,17.00
2018-05-01T14:18:05.362Z,16.96
2018-05-01T14:20:44.817Z,17.09
2018-05-01T14:23:18.169Z,17.07
2018-05-01T14:25:51.808Z,16.72
2018-05-01T14:28:25.276Z,16.70
2018-05-01T14:30:59.004Z,16.92
2018-05-01T14:33:32.597Z,16.81
2018-05-01T14:36:05.880Z,16.92
2018-05-01T14:38:39.611Z,16.82
2018-05-01T14:41:12.959Z,16.91
2018-05-01T14:43:46.393Z,16.80
2018-05-01T14:46:19.901Z,16.91
2018-05-01T14:48:56.309Z,16.95
2018-05-01T14:52:18.207Z,16.86
2018-05-01T14:54:51.532Z,16.93
2018-05-01T14:57:25.467Z,16.92
2018-05-01T15:00:02.433Z,16.97
2018-05-01T15:02:36.541Z,17.12
2018-05-01T15:05:09.935Z,17.09
2018-05-01T15:07:55.585Z,17.05
2018-05-01T15:10:29.500Z,17.11
2018-05-01T15:13:03.190Z,17.00
2018-05-01T15:15:36.770Z,17.12
2018-05-01T15:18:10.763Z,17.18
2018-05-01T15:20:44.965Z,17.02
2018-05-01T15:23:18.229Z,17.24
2018-05-01T15:25:51.353Z,17.17
2018-05-01T15:28:25.069Z,17.22
2018-05-01T15:31:03.667Z,17.14
2018-05-01T15:33:42.261Z,17.10
2018-05-01T15:36:17.119Z,17.14
2018-05-01T15:38:50.547Z,17.05
2018-05-01T15:41:24.115Z,16.97
2018-05-01T15:43:58.279Z,16.66
2018-05-01T15:46:36.137Z,16.74
2018-05-01T15:49:13.135Z,16.80
2018-05-01T15:51:52.638Z,16.65
2018-05-01T15:54:26.661Z,16.68
2018-05-01T15:57:01.955Z,16.62
2018-05-01T15:59:35.684Z,16.56
2018-05-01T16:02:09.274Z,16.52
2018-05-01T16:04:43.628Z,16.54
2018-05-01T16:07:18.141Z,16.68
2018-05-01T16:09:53.477Z,16.84
2018-05-01T16:12:27.598Z,17.06
2018-05-01T16:15:00.805Z,16.85
2018-05-01T16:17:59.089Z,17.02
2018-05-01T16:20:41.277Z,17.16
2018-05-01T16:23:21.566Z,17.17
2018-05-01T16:25:55.774Z,16.87
2018-05-01T16:28:31.164Z,16.53
2018-05-01T16:31:07.723Z,16.46
2018-05-01T16:33:41.475Z,16.29
2018-05-01T16:36:15.079Z,16.09
2018-05-01T16:38:49.369Z,15.97
2018-05-01T16:41:22.845Z,15.75
2018-05-01T16:43:57.486Z,15.56
2018-05-01T16:46:31.290Z,15.50
2018-05-01T16:49:27.346Z,15.46
2018-05-01T16:55:35.060Z,15.24
2018-05-01T16:58:13.634Z,15.11
2018-05-01T17:03:46.319Z,15.01
2018-05-01T17:06:24.114Z,14.95
2018-05-01T17:08:58.189Z,14.98
2018-05-01T17:11:32.449Z,14.88
2018-05-01T17:14:06.444Z,14.89
2018-05-01T17:16:43.838Z,14.85
2018-05-01T17:19:20.891Z,14.84
2018-05-01T17:21:54.018Z,14.73
2018-05-01T17:24:31.723Z,14.68
2018-05-01T17:27:11.884Z,14.68
2018-05-01T17:29:46.532Z,14.73
2018-05-01T17:32:20.038Z,14.50
2018-05-01T17:34:53.295Z,14.68
2018-05-01T17:37:26.997Z,14.59
2018-05-01T17:40:00.874Z,14.55
2018-05-01T17:42:34.897Z,14.65
2018-05-01T17:45:10.992Z,14.64
2018-05-01T17:47:52.391Z,14.57
2018-05-01T17:50:31.217Z,14.51
2018-05-01T17:53:09.372Z,14.49
2018-05-01T17:55:43.258Z,14.46
2018-05-01T17:58:21.182Z,14.50
2018-05-01T18:00:59.328Z,14.32
2018-05-01T18:03:32.606Z,14.22
2018-05-01T18:06:06.842Z,14.10
2018-05-01T18:08:40.114Z,14.03
2018-05-01T18:11:13.631Z,13.96
2018-05-01T18:13:54.806Z,13.87
2018-05-01T18:16:29.921Z,13.80
2018-05-01T18:19:03.741Z,13.70
2018-05-01T18:21:36.906Z,13.66
2018-05-01T18:24:13.319Z,13.57
2018-05-01T18:26:46.902Z,13.50
2018-05-01T18:29:20.171Z,13.40
2018-05-01T18:31:53.306Z,13.33
2018-05-01T18:34:29.571Z,13.22
2018-05-01T18:37:04.123Z,13.13
2018-05-01T18:39:38.216Z,13.04
2018-05-01T18:42:17.100Z,12.94
2018-05-01T18:44:59.829Z,12.81
2018-05-01T18:49:56.791Z,12.70
2018-05-01T18:52:30.934Z,12.70
2018-05-01T18:55:05.143Z,12.62
2018-05-01T18:57:40.427Z,12.53
2018-05-01T19:00:16.293Z,12.42
2018-05-01T19:02:50.467Z,12.37
2018-05-01T19:05:23.974Z,12.25
2018-05-01T19:07:59.127Z,12.16
2018-05-01T19:10:33.992Z,12.06
2018-05-01T19:13:08.925Z,11.98
2018-05-01T19:15:43.011Z,11.88
2018-05-01T19:18:18.781Z,11.83
2018-05-01T19:20:52.924Z,11.73
2018-05-01T19:23:26.911Z,11.65
2018-05-01T19:26:00.469Z,11.57
2018-05-01T19:28:42.515Z,11.51
2018-05-01T19:31:17.589Z,11.49
2018-05-01T19:33:52.156Z,11.49
2018-05-01T19:36:26.543Z,11.51
2018-05-01T19:39:01.408Z,11.48
2018-05-01T19:41:37.041Z,11.45
2018-05-01T19:44:11.000Z,11.38
2018-05-01T19:46:44.626Z,11.38
2018-05-01T19:49:19.805Z,11.48
2018-05-01T19:51:54.362Z,11.47
2018-05-01T19:54:31.758Z,11.36
2018-05-01T19:57:05.559Z,11.47
2018-05-01T19:59:39.323Z,11.59
2018-05-01T20:02:12.677Z,11.38
2018-05-01T20:04:45.983Z,11.26
2018-05-01T20:07:19.677Z,11.30
2018-05-01T20:09:52.997Z,11.35
2018-05-01T20:12:27.788Z,11.41
2018-05-01T20:15:01.484Z,11.37
2018-05-01T20:17:35.100Z,11.29
2018-05-01T20:20:08.456Z,11.28
2018-05-01T20:22:41.885Z,11.26
2018-05-01T20:25:16.245Z,11.26
2018-05-01T20:27:50.247Z,11.12
2018-05-01T20:30:23.775Z,11.06
2018-05-01T20:32:57.955Z,10.98
2018-05-01T20:35:34.199Z,10.90
2018-05-01T20:38:08.282Z,10.75
2018-05-01T20:40:42.560Z,10.69
2018-05-01T20:43:16.249Z,10.62
2018-05-01T20:45:49.455Z,10.54
2018-05-01T20:48:22.694Z,10.41
2018-05-01T20:50:55.868Z,10.33
2018-05-01T20:53:29.815Z,10.23
2018-05-01T20:56:03.167Z,10.13
2018-05-01T20:58:36.578Z,10.14
2018-05-01T21:01:10.578Z,10.10
2018-05-01T21:03:43.763Z,10.06
2018-05-01T21:06:16.968Z,10.02
2018-05-01T21:08:51.236Z,9.92
2018-05-01T21:11:24.555Z,9.83
2018-05-01T21:13:57.605Z,9.77
2018-05-01T21:16:31.224Z,9.82
2018-05-01T21:19:04.252Z,9.75
2018-05-01T21:21:37.299Z,9.68
2018-05-01T21:24:10.456Z,9.57
2018-05-01T21:26:43.658Z,9.56
2018-05-01T21:29:16.625Z,9.51
2018-05-01T21:31:49.645Z,9.47
2018-05-01T21:34:22.699Z,9.42
2018-05-01T21:36:55.794Z,9.33
2018-05-01T21:39:28.832Z,9.27
2018-05-01T21:42:01.994Z,9.22
2018-05-01T21:44:35.073Z,9.08
2018-05-01T21:47:08.383Z,9.05
2018-05-01T21:49:41.428Z,9.04
2018-05-01T21:52:15.949Z,9.02
2018-05-01T21:54:48.940Z,8.99
2018-05-01T21:57:21.917Z,8.94
2018-05-01T21:59:55.589Z,8.92
2018-05-01T22:02:28.628Z,8.88
2018-05-01T22:05:01.669Z,8.86
2018-05-01T22:07:34.879Z,8.76
2018-05-01T22:10:09.310Z,8.74
2018-05-01T22:12:42.354Z,8.71
2018-05-01T22:15:15.880Z,8.62
2018-05-01T22:17:49.111Z,8.61
2018-05-01T22:20:22.178Z,8.56
2018-05-01T22:22:55.306Z,8.54
2018-05-01T22:25:28.258Z,8.49
2018-05-01T22:28:01.800Z,8.45
2018-05-01T22:30:34.831Z,8.46
2018-05-01T22:33:07.903Z,8.39
2018-05-01T22:35:41.101Z,8.34
2018-05-01T22:38:14.176Z,8.35
2018-05-01T22:40:47.577Z,8.34
2018-05-01T22:43:20.891Z,8.22
2018-05-01T22:45:55.916Z,8.16
2018-05-01T22:48:29.526Z,8.09
2018-05-01T22:51:02.840Z,8.07
2018-05-01T22:53:36.004Z,8.02
2018-05-01T22:56:10.284Z,8.01
2018-05-01T22:58:43.544Z,7.91
2018-05-01T23:01:17.241Z,7.91
2018-05-01T23:03:51.510Z,7.84
2018-05-01T23:06:24.854Z,7.78
2018-05-01T23:08:58.134Z,7.77
2018-05-01T23:11:32.248Z,7.75
2018-05-01T23:14:05.651Z,7.74
2018-05-01T23:16:38.717Z,7.76
2018-05-01T23:19:11.920Z,7.68
2018-05-01T23:21:45.344Z,7.64
2018-05-01T23:24:18.403Z,7.57
2018-05-01T23:26:51.461Z,7.57
2018-05-01T23:29:24.928Z,7.51
2018-05-01T23:31:58.197Z,7.46
2018-05-01T23:34:31.371Z,7.52
2018-05-01T23:37:06.111Z,7.52
2018-05-01T23:39:39.332Z,7.53
2018-05-01T23:42:12.567Z,7.47
2018-05-01T23:44:45.692Z,7.35
2018-05-01T23:47:19.242Z,7.29
2018-05-01T23:49:52.271Z,7.24
2018-05-01T23:52:25.535Z,7.27
2018-05-01T23:54:58.858Z,7.29
2018-05-01T23:57:32.097Z,7.28
